createdAt,value
2018-11-02T00:00:26.616Z,15.47
2018-11-02T00:02:29.694Z,15.67
2018-11-02T00:04:34.840Z,15.10
2018-11-02T00:06:37.872Z,15.20
2018-11-02T00:08:41.100Z,16.03
2018-11-02T00:10:44.181Z,16.40
2018-11-02T00:12:47.171Z,14.97
2018-11-02T00:14:50.195Z,14.30
2018-11-02T00:16:53.422Z,14.20
2018-11-02T00:18:56.687Z,17.37
2018-11-02T00:20:59.873Z,16.93
2018-11-02T00:23:04.868Z,16.17
2018-11-02T00:25:07.890Z,14.83
2018-11-02T00:27:11.104Z,16.13
2018-11-02T00:29:14.125Z,14.27
2018-11-02T00:31:17.192Z,15.77
2018-11-02T00:33:20.259Z,16.33
2018-11-02T00:35:23.282Z,15.80
2018-11-02T00:37:26.298Z,17.80
2018-11-02T00:39:29.355Z,15.07
2018-11-02T00:41:34.085Z,15.13
2018-11-02T00:43:37.162Z,16.30
2018-11-02T00:45:40.169Z,16.33
2018-11-02T00:47:43.344Z,15.80
2018-11-02T00:49:46.318Z,15.67
2018-11-02T00:51:49.346Z,16.10
2018-11-02T00:53:52.360Z,17.07
2018-11-02T00:55:55.394Z,15.80
2018-11-02T00:57:58.376Z,14.50
2018-11-02T01:00:01.443Z,13.93
2018-11-02T01:02:05.142Z,16.90
2018-11-02T01:04:08.198Z,15.77
2018-11-02T01:06:11.204Z,14.13
2018-11-02T01:08:14.239Z,13.97
2018-11-02T01:10:17.282Z,15.40
2018-11-02T01:12:20.523Z,14.97
2018-11-02T01:14:23.522Z,14.33
2018-11-02T01:16:26.589Z,14.90
2018-11-02T01:18:29.699Z,15.00
2018-11-02T01:20:34.119Z,13.43
2018-11-02T01:22:37.146Z,14.03
2018-11-02T01:24:40.158Z,14.20
2018-11-02T01:26:43.187Z,14.73
2018-11-02T01:28:46.196Z,14.63
2018-11-02T01:30:49.146Z,13.50
2018-11-02T01:32:52.176Z,15.83
2018-11-02T01:34:55.202Z,13.07
2018-11-02T01:36:58.310Z,16.47
2018-11-02T01:39:01.361Z,14.40
2018-11-02T01:41:04.691Z,15.70
2018-11-02T01:43:07.681Z,15.30
2018-11-02T01:45:10.690Z,16.30
2018-11-02T01:47:13.837Z,13.00
2018-11-02T01:49:16.871Z,14.47
2018-11-02T01:51:19.859Z,17.70
2018-11-02T01:53:22.951Z,19.20
2018-11-02T01:55:25.963Z,14.50
2018-11-02T01:57:29.005Z,15.00
2018-11-02T01:59:34.036Z,13.97
2018-11-02T02:01:37.063Z,16.53
2018-11-02T02:03:40.115Z,14.90
2018-11-02T02:05:43.125Z,15.00
2018-11-02T02:07:46.190Z,17.53
2018-11-02T02:09:49.236Z,13.43
2018-11-02T02:11:52.442Z,14.70
2018-11-02T02:13:55.589Z,14.87
2018-11-02T02:15:58.963Z,14.10
2018-11-02T02:18:03.599Z,14.73
2018-11-02T02:20:07.228Z,15.10
2018-11-02T02:22:10.591Z,17.50
2018-11-02T02:24:13.609Z,15.07
2018-11-02T02:26:16.652Z,15.07
2018-11-02T02:28:19.738Z,15.83
2018-11-02T02:30:22.828Z,13.97
2018-11-02T02:32:25.880Z,13.57
2018-11-02T02:34:28.905Z,13.17
2018-11-02T02:36:33.484Z,14.70
2018-11-02T02:38:36.856Z,14.97
2018-11-02T02:40:39.863Z,13.37
2018-11-02T02:42:42.870Z,12.07
2018-11-02T02:44:45.899Z,14.43
2018-11-02T02:46:48.899Z,14.13
2018-11-02T02:48:51.958Z,13.10
2018-11-02T02:50:55.031Z,15.25
2018-11-02T02:52:58.052Z,12.67
2018-11-02T02:55:01.112Z,13.10
2018-11-02T02:57:05.900Z,14.07
2018-11-02T02:59:08.944Z,14.73
2018-11-02T03:01:11.969Z,14.77
2018-11-02T03:03:15.124Z,15.77
2018-11-02T03:05:18.139Z,13.63
2018-11-02T03:07:21.117Z,14.83
2018-11-02T03:09:24.160Z,14.30
2018-11-02T03:11:27.192Z,12.30
2018-11-02T03:13:30.219Z,13.60
2018-11-02T03:15:35.075Z,17.47
2018-11-02T03:17:38.138Z,13.73
2018-11-02T03:19:41.192Z,13.10
2018-11-02T03:21:44.237Z,13.23
2018-11-02T03:23:47.687Z,13.23
2018-11-02T03:25:50.696Z,13.10
2018-11-02T03:27:53.696Z,13.60
2018-11-02T03:29:56.667Z,15.63
2018-11-02T03:31:59.687Z,12.87
2018-11-02T03:34:04.425Z,14.00
2018-11-02T03:36:07.568Z,11.40
2018-11-02T03:38:10.601Z,11.77
2018-11-02T03:40:13.601Z,12.13
2018-11-02T03:42:18.392Z,12.27
2018-11-02T03:44:21.408Z,12.57
2018-11-02T03:46:24.453Z,11.70
2018-11-02T03:48:27.518Z,11.40
2018-11-02T03:50:30.540Z,11.37
2018-11-02T03:52:35.008Z,13.13
2018-11-02T03:54:38.072Z,13.93
2018-11-02T03:56:41.098Z,12.17
2018-11-02T03:58:44.114Z,11.53
2018-11-02T04:00:47.116Z,11.93
2018-11-02T04:02:50.100Z,14.40
2018-11-02T04:04:53.114Z,10.83
2018-11-02T04:06:56.446Z,19.30
2018-11-02T04:08:59.464Z,10.93
2018-11-02T04:11:03.785Z,11.17
2018-11-02T04:13:06.774Z,10.53
2018-11-02T04:15:09.804Z,10.73
2018-11-02T04:17:13.049Z,12.77
2018-11-02T04:19:16.076Z,11.27
2018-11-02T04:21:19.112Z,12.70
2018-11-02T04:23:22.284Z,11.63
2018-11-02T04:25:25.304Z,12.83
2018-11-02T04:27:28.626Z,12.53
2018-11-02T04:29:33.155Z,12.30
2018-11-02T04:31:36.389Z,11.23
2018-11-02T04:33:39.401Z,11.33
2018-11-02T04:35:42.418Z,11.97
2018-11-02T04:37:45.455Z,13.27
2018-11-02T04:39:48.464Z,12.07
2018-11-02T04:41:51.650Z,12.30
2018-11-02T04:43:54.654Z,11.27
2018-11-02T04:45:57.693Z,14.30
2018-11-02T04:48:01.140Z,12.10
2018-11-02T04:50:07.457Z,11.30
2018-11-02T04:52:10.442Z,12.00
2018-11-02T04:54:13.645Z,10.70
2018-11-02T04:56:16.624Z,11.93
2018-11-02T04:58:19.646Z,10.73
2018-11-02T05:00:22.663Z,12.40
2018-11-02T05:02:25.716Z,11.70
2018-11-02T05:04:28.740Z,11.73
2018-11-02T05:06:33.332Z,10.73
2018-11-02T05:08:36.459Z,13.03
2018-11-02T05:10:39.450Z,11.80
2018-11-02T05:12:42.452Z,11.70
2018-11-02T05:14:45.512Z,11.40
2018-11-02T05:16:48.573Z,13.77
2018-11-02T05:18:51.553Z,18.80
2018-11-02T05:20:54.600Z,12.50
2018-11-02T05:22:57.711Z,13.23
2018-11-02T05:25:00.686Z,12.47
2018-11-02T05:27:05.005Z,14.37
2018-11-02T05:29:09.069Z,14.80
2018-11-02T05:31:12.070Z,19.90
2018-11-02T05:33:15.158Z,12.93
2018-11-02T05:35:18.237Z,13.57
2018-11-02T05:37:21.258Z,12.90
2018-11-02T05:39:24.271Z,13.47
2018-11-02T05:41:27.282Z,17.93
2018-11-02T05:43:30.266Z,14.37
2018-11-02T05:45:34.825Z,14.20
2018-11-02T05:47:37.945Z,13.50
2018-11-02T05:49:40.934Z,14.87
2018-11-02T05:51:43.936Z,16.53
2018-11-02T05:53:47.004Z,13.00
2018-11-02T05:55:49.977Z,13.33
2018-11-02T05:57:52.987Z,18.33
2018-11-02T05:59:56.348Z,14.13
2018-11-02T06:01:59.356Z,16.50
2018-11-02T06:04:03.878Z,12.50
2018-11-02T06:06:07.223Z,13.23
2018-11-02T06:08:10.232Z,13.57
2018-11-02T06:10:13.239Z,16.60
2018-11-02T06:12:16.439Z,12.03
2018-11-02T06:14:19.507Z,12.20
2018-11-02T06:16:22.508Z,16.40
2018-11-02T06:18:25.862Z,13.07
2018-11-02T06:20:28.886Z,12.63
2018-11-02T06:22:33.549Z,13.80
2018-11-02T06:24:36.637Z,14.50
2018-11-02T06:26:39.675Z,18.10
2018-11-02T06:28:42.730Z,13.00
2018-11-02T06:30:45.911Z,14.63
2018-11-02T06:32:49.053Z,14.10
2018-11-02T06:34:51.882Z,16.77
2018-11-02T06:36:55.185Z,18.47
2018-11-02T06:38:58.604Z,16.20
2018-11-02T06:41:01.573Z,14.17
2018-11-02T06:43:06.135Z,12.77
2018-11-02T06:45:10.085Z,13.47
2018-11-02T06:47:13.156Z,14.57
2018-11-02T06:49:16.424Z,12.37
2018-11-02T06:51:19.451Z,13.27
2018-11-02T06:53:22.449Z,12.80
2018-11-02T06:55:25.461Z,12.27
2018-11-02T06:57:28.509Z,13.37
2018-11-02T06:59:31.745Z,13.00
2018-11-02T07:01:35.624Z,12.67
2018-11-02T07:03:38.664Z,14.87
2018-11-02T07:05:41.654Z,13.57
2018-11-02T07:07:45.138Z,13.30
2018-11-02T07:09:48.120Z,11.57
2018-11-02T07:11:51.151Z,14.17
2018-11-02T07:13:54.224Z,13.60
2018-11-02T07:15:57.379Z,12.90
2018-11-02T07:18:00.380Z,13.80
2018-11-02T07:20:05.353Z,12.67
2018-11-02T07:22:08.384Z,12.67
2018-11-02T07:24:11.433Z,13.60
2018-11-02T07:26:14.501Z,12.07
2018-11-02T07:28:17.537Z,11.10
2018-11-02T07:30:20.603Z,18.73
2018-11-02T07:32:23.628Z,17.93
2018-11-02T07:34:26.702Z,15.20
2018-11-02T07:36:29.612Z,12.57
2018-11-02T07:38:34.454Z,12.90
2018-11-02T07:40:37.465Z,12.43
2018-11-02T07:42:41.061Z,13.10
2018-11-02T07:44:44.068Z,13.33
2018-11-02T07:46:47.148Z,12.60
2018-11-02T07:48:50.227Z,12.27
2018-11-02T07:50:53.264Z,12.77
2018-11-02T07:52:56.603Z,13.73
2018-11-02T07:54:59.617Z,11.67
2018-11-02T07:57:04.539Z,12.53
2018-11-02T07:59:07.641Z,13.50
2018-11-02T08:01:10.639Z,11.10
2018-11-02T08:03:13.612Z,8.80
2018-11-02T08:05:16.671Z,13.03
2018-11-02T08:07:19.777Z,11.83
2018-11-02T08:09:22.788Z,11.07
2018-11-02T08:11:25.861Z,11.43
2018-11-02T08:13:28.836Z,11.70
2018-11-02T08:15:33.475Z,11.13
2018-11-02T08:17:37.295Z,10.70
2018-11-02T08:19:40.214Z,9.60
2018-11-02T08:21:43.213Z,13.03
2018-11-02T08:23:46.575Z,9.20
2018-11-02T08:25:49.582Z,8.47
2018-11-02T08:27:52.602Z,8.73
2018-11-02T08:29:55.587Z,9.47
2018-11-02T08:31:58.672Z,9.90
2018-11-02T08:34:03.413Z,9.57
2018-11-02T08:36:06.403Z,9.07
2018-11-02T08:38:09.421Z,9.20
2018-11-02T08:40:13.155Z,11.27
2018-11-02T08:42:16.172Z,9.00
2018-11-02T08:44:19.156Z,12.03
2018-11-02T08:46:22.213Z,8.17
2018-11-02T08:48:25.178Z,8.10
2018-11-02T08:50:28.610Z,8.37
2018-11-02T08:52:31.610Z,8.47
2018-11-02T08:54:36.308Z,7.10
2018-11-02T08:56:39.334Z,8.90
2018-11-02T08:58:42.499Z,7.93
2018-11-02T09:00:45.421Z,8.20
2018-11-02T09:02:48.484Z,8.67
2018-11-02T09:04:51.508Z,7.80
2018-11-02T09:06:54.562Z,7.57
2018-11-02T09:08:57.580Z,7.30
2018-11-02T09:11:00.593Z,7.13
2018-11-02T09:13:04.797Z,7.70
2018-11-02T09:15:07.817Z,7.60
2018-11-02T09:17:10.918Z,7.33
2018-11-02T09:19:14.012Z,8.10
2018-11-02T09:21:17.004Z,6.37
2018-11-02T09:23:20.011Z,7.07
2018-11-02T09:25:23.082Z,7.33
2018-11-02T09:27:26.146Z,7.07
2018-11-02T09:29:29.181Z,7.63
2018-11-02T09:31:34.076Z,7.30
2018-11-02T09:33:37.124Z,7.93
2018-11-02T09:35:40.130Z,6.70
2018-11-02T09:37:43.514Z,6.20
2018-11-02T09:39:46.600Z,6.40
2018-11-02T09:41:49.642Z,6.10
2018-11-02T09:43:52.706Z,5.77
2018-11-02T09:45:55.809Z,6.07
2018-11-02T09:47:58.894Z,7.10
2018-11-02T09:50:03.614Z,8.43
2018-11-02T09:52:06.878Z,8.10
2018-11-02T09:54:09.769Z,6.77
2018-11-02T09:56:12.795Z,5.87
2018-11-02T09:58:15.906Z,5.67
2018-11-02T10:00:18.985Z,5.80
2018-11-02T10:02:22.021Z,7.20
2018-11-02T10:04:25.096Z,5.73
2018-11-02T10:06:28.148Z,5.60
2018-11-02T10:08:31.288Z,7.20
2018-11-02T10:10:36.018Z,7.17
2018-11-02T10:12:39.119Z,5.13
2018-11-02T10:14:42.194Z,6.57
2018-11-02T10:16:45.695Z,5.73
2018-11-02T10:18:48.760Z,5.13
2018-11-02T10:20:51.815Z,5.67
2018-11-02T10:22:54.849Z,7.53
2018-11-02T10:24:58.200Z,4.97
2018-11-02T10:27:01.288Z,12.63
2018-11-02T10:29:05.682Z,6.43
2018-11-02T10:31:08.784Z,5.50
2018-11-02T10:33:11.815Z,4.80
2018-11-02T10:35:14.888Z,5.93
2018-11-02T10:37:17.983Z,5.23
2018-11-02T10:39:21.056Z,5.33
2018-11-02T10:41:30.598Z,8.20
2018-11-02T10:43:34.890Z,4.90
2018-11-02T10:45:41.835Z,5.83
2018-11-02T10:47:45.915Z,6.30
2018-11-02T10:49:49.028Z,5.90
2018-11-02T10:51:52.038Z,4.90
2018-11-02T10:53:55.182Z,6.17
2018-11-02T10:55:58.234Z,6.20
2018-11-02T10:58:01.298Z,6.27
2018-11-02T11:00:14.277Z,7.87
2018-11-02T11:02:23.218Z,5.53
2018-11-02T11:04:26.254Z,6.00
2018-11-02T11:06:29.640Z,5.60
2018-11-02T11:08:33.979Z,7.30
2018-11-02T11:10:37.038Z,7.93
2018-11-02T11:12:41.162Z,5.17
2018-11-02T11:14:44.070Z,5.83
2018-11-02T11:16:47.147Z,6.70
2018-11-02T11:18:50.222Z,5.07
2018-11-02T11:20:53.310Z,5.97
2018-11-02T11:22:56.359Z,7.63
2018-11-02T11:24:59.458Z,6.03
2018-11-02T11:27:03.921Z,7.27
2018-11-02T11:29:07.470Z,9.67
2018-11-02T11:31:10.556Z,10.80
2018-11-02T11:33:13.639Z,5.80
2018-11-02T11:35:17.560Z,6.00
2018-11-02T11:37:20.701Z,4.93
2018-11-02T11:39:23.841Z,4.97
2018-11-02T11:41:26.874Z,6.17
2018-11-02T11:43:30.059Z,5.53
2018-11-02T11:45:34.279Z,5.70
2018-11-02T11:47:37.828Z,5.80
2018-11-02T11:49:40.958Z,6.17
2018-11-02T11:51:44.036Z,4.80
2018-11-02T11:53:47.140Z,5.07
2018-11-02T11:55:50.185Z,6.00
2018-11-02T11:57:53.625Z,5.53
2018-11-02T11:59:56.741Z,5.00
2018-11-02T12:01:59.795Z,5.00
2018-11-02T12:04:04.844Z,5.47
2018-11-02T12:06:07.992Z,5.30
2018-11-02T12:08:11.138Z,5.40
2018-11-02T12:10:16.924Z,4.63
2018-11-02T12:12:19.998Z,5.80
2018-11-02T12:14:23.010Z,5.03
2018-11-02T12:16:26.133Z,5.57
2018-11-02T12:18:29.192Z,4.03
2018-11-02T12:20:33.885Z,5.30
2018-11-02T12:22:37.003Z,4.50
2018-11-02T12:24:40.209Z,4.80
2018-11-02T12:26:43.212Z,5.27
2018-11-02T12:28:46.288Z,5.83
2018-11-02T12:30:49.395Z,5.07
2018-11-02T12:32:52.332Z,5.67
2018-11-02T12:34:55.360Z,5.07
2018-11-02T12:36:58.398Z,5.73
2018-11-02T12:39:01.317Z,5.30
2018-11-02T12:41:05.750Z,5.67
2018-11-02T12:43:08.784Z,4.40
2018-11-02T12:45:14.182Z,5.13
2018-11-02T12:47:17.227Z,4.67
2018-11-02T12:49:20.512Z,4.10
2018-11-02T12:51:23.284Z,4.80
2018-11-02T12:53:26.284Z,5.87
2018-11-02T12:55:29.284Z,4.27
2018-11-02T12:57:34.275Z,4.27
2018-11-02T12:59:37.279Z,4.50
2018-11-02T13:01:40.312Z,9.20
2018-11-02T13:03:43.443Z,4.97
2018-11-02T13:05:46.474Z,5.77
2018-11-02T13:07:49.533Z,4.33
2018-11-02T13:09:52.621Z,4.57
2018-11-02T13:11:55.593Z,4.90
2018-11-02T13:13:58.909Z,4.43
2018-11-02T13:16:03.592Z,4.23
2018-11-02T13:18:06.533Z,5.57
2018-11-02T13:20:10.124Z,3.70
2018-11-02T13:22:13.092Z,4.03
2018-11-02T13:24:16.139Z,4.13
2018-11-02T13:26:19.327Z,3.87
2018-11-02T13:28:22.369Z,4.63
2018-11-02T13:30:25.429Z,4.70
2018-11-02T13:32:28.348Z,4.30
2018-11-02T13:34:31.333Z,4.50
2018-11-02T13:36:35.618Z,4.40
2018-11-02T13:38:38.394Z,8.50
2018-11-02T13:40:41.448Z,5.60
2018-11-02T13:42:44.575Z,4.80
2018-11-02T13:44:47.593Z,5.00
2018-11-02T13:46:50.693Z,4.10
2018-11-02T13:48:53.719Z,3.80
2018-11-02T13:50:56.720Z,4.63
2018-11-02T13:52:59.784Z,4.97
2018-11-02T13:55:04.508Z,4.40
2018-11-02T13:57:07.873Z,3.90
2018-11-02T13:59:10.933Z,5.10
2018-11-02T14:01:14.027Z,3.63
2018-11-02T14:03:17.064Z,4.63
2018-11-02T14:05:20.065Z,4.23
2018-11-02T14:07:23.122Z,3.87
2018-11-02T14:09:26.269Z,4.20
2018-11-02T14:11:29.596Z,3.60
2018-11-02T14:13:32.938Z,3.93
2018-11-02T14:15:36.003Z,5.00
2018-11-02T14:17:39.616Z,4.10
2018-11-02T14:19:42.716Z,3.87
2018-11-02T14:21:45.834Z,3.70
2018-11-02T14:23:49.236Z,3.57
2018-11-02T14:25:52.232Z,5.27
2018-11-02T14:27:55.314Z,5.17
2018-11-02T14:29:58.405Z,3.97
2018-11-02T14:32:01.527Z,3.83
2018-11-02T14:34:05.836Z,4.20
2018-11-02T14:36:08.922Z,5.13
2018-11-02T14:38:11.975Z,4.13
2018-11-02T14:40:15.054Z,5.83
2018-11-02T14:42:18.054Z,5.20
2018-11-02T14:44:21.104Z,4.50
2018-11-02T14:46:24.228Z,4.23
2018-11-02T14:48:27.295Z,8.30
2018-11-02T14:50:30.398Z,3.53
2018-11-02T14:52:35.159Z,4.23
2018-11-02T14:54:38.189Z,5.80
2018-11-02T14:56:41.254Z,4.90
2018-11-02T14:58:44.332Z,4.13
2018-11-02T15:00:47.479Z,4.40
2018-11-02T15:02:50.921Z,5.07
2018-11-02T15:04:54.103Z,4.67
2018-11-02T15:06:57.161Z,4.27
2018-11-02T15:09:00.317Z,4.33
2018-11-02T15:11:05.255Z,4.33
2018-11-02T15:13:08.278Z,4.80
2018-11-02T15:15:11.350Z,5.67
2018-11-02T15:17:14.761Z,5.00
2018-11-02T15:19:17.793Z,3.47
2018-11-02T15:21:20.837Z,3.60
2018-11-02T15:23:23.991Z,4.47
2018-11-02T15:25:27.041Z,5.30
2018-11-02T15:27:30.103Z,5.37
2018-11-02T15:29:34.905Z,8.40
2018-11-02T15:31:38.017Z,7.80
2018-11-02T15:33:41.341Z,4.33
2018-11-02T15:35:44.397Z,6.43
2018-11-02T15:37:47.762Z,6.30
2018-11-02T15:39:50.745Z,9.90
2018-11-02T15:41:53.803Z,13.40
2018-11-02T15:43:56.971Z,13.03
2018-11-02T15:46:00.043Z,12.40
2018-11-02T15:48:04.186Z,4.40
2018-11-02T15:50:08.829Z,6.10
2018-11-02T15:52:13.236Z,5.87
2018-11-02T15:54:16.256Z,5.50
2018-11-02T15:56:19.377Z,17.60
2018-11-02T15:58:22.482Z,12.50
2018-11-02T16:00:25.598Z,10.30
2018-11-02T16:02:28.680Z,14.70
2018-11-02T16:04:33.546Z,13.20
2018-11-02T16:06:36.599Z,11.27
2018-11-02T16:08:39.644Z,8.20
2018-11-02T16:10:42.887Z,7.83
2018-11-02T16:12:46.517Z,8.90
2018-11-02T16:14:49.581Z,6.60
2018-11-02T16:16:52.967Z,13.53
2018-11-02T16:18:56.173Z,6.37
2018-11-02T16:20:59.276Z,5.50
2018-11-02T16:23:04.190Z,7.33
2018-11-02T16:25:07.368Z,5.00
2018-11-02T16:27:10.473Z,8.50
2018-11-02T16:29:13.576Z,6.30
2018-11-02T16:31:16.618Z,9.30
2018-11-02T16:33:20.067Z,6.87
2018-11-02T16:35:23.116Z,5.60
2018-11-02T16:37:26.914Z,6.33
2018-11-02T16:39:30.324Z,7.80
2018-11-02T16:41:35.037Z,7.23
2018-11-02T16:43:38.128Z,8.67
2018-11-02T16:45:41.165Z,9.63
2018-11-02T16:47:44.504Z,9.43
2018-11-02T16:49:47.475Z,6.33
2018-11-02T16:51:50.551Z,9.43
2018-11-02T16:53:53.660Z,6.67
2018-11-02T16:55:56.771Z,6.57
2018-11-02T16:57:59.880Z,6.20
2018-11-02T17:00:03.888Z,7.60
2018-11-02T17:02:07.025Z,6.23
2018-11-02T17:04:10.272Z,6.67
2018-11-02T17:06:13.501Z,8.63
2018-11-02T17:08:16.420Z,9.60
2018-11-02T17:10:19.498Z,9.53
2018-11-02T17:12:22.544Z,8.67
2018-11-02T17:14:25.578Z,8.50
2018-11-02T17:16:28.699Z,10.00
2018-11-02T17:18:33.406Z,8.50
2018-11-02T17:20:36.541Z,8.77
2018-11-02T17:22:39.693Z,9.03
2018-11-02T17:24:42.795Z,8.40
2018-11-02T17:26:45.866Z,8.17
2018-11-02T17:28:48.987Z,9.73
2018-11-02T17:30:52.085Z,7.60
2018-11-02T17:32:55.136Z,7.23
2018-11-02T17:34:58.167Z,7.97
2018-11-02T17:37:01.231Z,8.50
2018-11-02T17:39:08.709Z,7.13
2018-11-02T17:41:11.852Z,8.70
2018-11-02T17:43:14.981Z,8.83
2018-11-02T17:45:18.053Z,8.47
2018-11-02T17:47:21.107Z,10.97
2018-11-02T17:49:24.242Z,8.47
2018-11-02T17:51:27.278Z,9.70
2018-11-02T17:53:30.363Z,9.03
2018-11-02T17:55:34.676Z,10.83
2018-11-02T17:57:37.692Z,11.00
2018-11-02T17:59:40.763Z,23.97
2018-11-02T18:01:44.049Z,23.00
2018-11-02T18:03:47.101Z,33.93
2018-11-02T18:05:50.169Z,57.30
2018-11-02T18:07:53.332Z,46.00
2018-11-02T18:09:56.372Z,31.27
2018-11-02T18:11:59.445Z,28.03
2018-11-02T18:14:04.333Z,16.13
2018-11-02T18:16:07.378Z,18.57
2018-11-02T18:18:10.525Z,12.23
2018-11-02T18:20:15.198Z,9.37
2018-11-02T18:22:18.387Z,7.60
2018-11-02T18:24:21.473Z,8.87
2018-11-02T18:26:24.509Z,7.10
2018-11-02T18:28:27.562Z,9.20
2018-11-02T18:30:30.661Z,8.30
2018-11-02T18:32:35.684Z,10.73
2018-11-02T18:34:38.699Z,8.90
2018-11-02T18:36:41.792Z,8.40
2018-11-02T18:38:44.888Z,8.17
2018-11-02T18:40:47.946Z,10.93
2018-11-02T18:42:50.953Z,8.60
2018-11-02T18:44:54.007Z,10.03
2018-11-02T18:46:57.022Z,11.67
2018-11-02T18:49:00.571Z,11.00
2018-11-02T18:51:05.185Z,11.27
2018-11-02T18:53:08.184Z,9.07
2018-11-02T18:55:11.208Z,8.73
2018-11-02T18:57:14.358Z,9.63
2018-11-02T18:59:17.429Z,10.60
2018-11-02T19:01:20.542Z,10.77
2018-11-02T19:03:23.590Z,9.97
2018-11-02T19:05:26.635Z,7.47
2018-11-02T19:07:29.669Z,8.00
2018-11-02T19:09:34.417Z,8.70
2018-11-02T19:11:38.875Z,8.13
2018-11-02T19:13:42.126Z,11.00
2018-11-02T19:15:45.238Z,9.00
2018-11-02T19:17:48.254Z,8.23
2018-11-02T19:19:51.427Z,8.40
2018-11-02T19:21:54.381Z,7.60
2018-11-02T19:23:57.475Z,7.77
2018-11-02T19:26:00.569Z,9.57
2018-11-02T19:28:04.987Z,9.63
2018-11-02T19:30:10.634Z,7.80
2018-11-02T19:32:13.827Z,7.97
2018-11-02T19:34:16.915Z,8.80
2018-11-02T19:36:20.359Z,9.63
2018-11-02T19:38:23.533Z,9.47
2018-11-02T19:40:26.514Z,8.90
2018-11-02T19:42:29.732Z,9.47
2018-11-02T19:44:34.205Z,9.43
2018-11-02T19:46:37.283Z,8.87
2018-11-02T19:48:40.410Z,8.90
2018-11-02T19:50:43.575Z,9.77
2018-11-02T19:52:46.532Z,11.07
2018-11-02T19:54:49.589Z,10.50
2018-11-02T19:56:52.712Z,9.23
2018-11-02T19:58:55.846Z,8.80
2018-11-02T20:00:58.905Z,9.17
2018-11-02T20:03:03.369Z,12.27
2018-11-02T20:05:08.746Z,8.50
2018-11-02T20:07:11.873Z,8.33
2018-11-02T20:09:15.023Z,8.40
2018-11-02T20:11:18.137Z,8.53
2018-11-02T20:13:21.179Z,8.90
2018-11-02T20:15:24.229Z,10.10
2018-11-02T20:17:27.267Z,9.07
2018-11-02T20:19:30.359Z,9.00
2018-11-02T20:21:35.257Z,8.50
2018-11-02T20:23:38.316Z,9.10
2018-11-02T20:25:41.487Z,10.23
2018-11-02T20:27:44.585Z,10.33
2018-11-02T20:29:47.697Z,10.90
2018-11-02T20:31:50.900Z,10.77
2018-11-02T20:33:53.912Z,11.57
2018-11-02T20:35:56.997Z,10.37
2018-11-02T20:38:00.107Z,11.53
2018-11-02T20:40:05.761Z,10.17
2018-11-02T20:42:08.988Z,11.30
2018-11-02T20:44:12.086Z,11.53
2018-11-02T20:46:15.167Z,10.50
2018-11-02T20:48:18.237Z,10.40
2018-11-02T20:50:21.380Z,11.10
2018-11-02T20:52:24.365Z,10.27
2018-11-02T20:54:27.478Z,11.30
2018-11-02T20:56:30.720Z,10.70
2018-11-02T20:58:35.607Z,10.50
2018-11-02T21:00:38.709Z,12.50
2018-11-02T21:02:42.386Z,12.30
2018-11-02T21:04:45.330Z,11.43
2018-11-02T21:06:48.472Z,11.77
2018-11-02T21:08:51.545Z,11.83
2018-11-02T21:10:54.517Z,12.87
2018-11-02T21:12:57.676Z,14.00
2018-11-02T21:15:00.838Z,12.07
2018-11-02T21:17:05.732Z,11.70
2018-11-02T21:19:08.782Z,14.43
2018-11-02T21:21:12.003Z,12.23
2018-11-02T21:23:14.988Z,13.17
2018-11-02T21:25:18.172Z,11.10
2018-11-02T21:27:21.287Z,10.93
2018-11-02T21:29:24.339Z,12.63
2018-11-02T21:31:27.677Z,12.83
2018-11-02T21:33:30.839Z,12.93
2018-11-02T21:35:35.616Z,14.27
2018-11-02T21:37:38.962Z,13.47
2018-11-02T21:39:42.009Z,11.13
2018-11-02T21:41:45.249Z,11.47
2018-11-02T21:43:48.457Z,10.53
2018-11-02T21:45:51.649Z,10.90
2018-11-02T21:47:54.793Z,10.77
2018-11-02T21:49:57.820Z,11.70
2018-11-02T21:52:00.875Z,13.27
2018-11-02T21:54:05.468Z,15.03
2018-11-02T21:56:08.584Z,14.00
2018-11-02T21:58:11.776Z,19.03
2018-11-02T22:00:15.708Z,21.77
2018-11-02T22:02:18.785Z,18.10
2018-11-02T22:04:21.862Z,13.47
2018-11-02T22:06:24.919Z,17.47
2018-11-02T22:08:27.941Z,12.33
2018-11-02T22:10:31.392Z,12.63
2018-11-02T22:12:35.779Z,12.70
2018-11-02T22:14:38.890Z,11.77
2018-11-02T22:16:42.022Z,11.67
2018-11-02T22:18:45.119Z,11.50
2018-11-02T22:20:48.147Z,11.43
2018-11-02T22:22:51.232Z,12.23
2018-11-02T22:24:54.372Z,11.70
2018-11-02T22:26:58.816Z,12.53
2018-11-02T22:29:03.314Z,11.37
2018-11-02T22:31:06.353Z,14.50
2018-11-02T22:33:09.491Z,12.20
2018-11-02T22:35:13.197Z,13.17
2018-11-02T22:37:16.299Z,13.10
2018-11-02T22:39:19.381Z,15.20
2018-11-02T22:41:22.624Z,13.67
2018-11-02T22:43:25.659Z,14.27
2018-11-02T22:45:28.800Z,12.67
2018-11-02T22:47:33.343Z,13.80
2018-11-02T22:49:36.568Z,12.50
2018-11-02T22:51:39.869Z,12.30
2018-11-02T22:53:42.872Z,13.40
2018-11-02T22:55:46.142Z,13.00
2018-11-02T22:57:49.559Z,14.43
2018-11-02T22:59:52.821Z,13.53
2018-11-02T23:01:55.984Z,13.63
2018-11-02T23:04:00.849Z,12.17
2018-11-02T23:06:05.839Z,12.50
2018-11-02T23:08:12.464Z,13.97
2018-11-02T23:10:16.270Z,13.07
2018-11-02T23:12:19.407Z,12.50
2018-11-02T23:14:22.509Z,13.77
2018-11-02T23:16:25.629Z,12.57
2018-11-02T23:18:28.752Z,12.90
2018-11-02T23:20:33.541Z,13.20
2018-11-02T23:22:36.898Z,13.73
2018-11-02T23:24:40.057Z,14.27
2018-11-02T23:26:43.126Z,13.93
2018-11-02T23:28:46.256Z,14.90
2018-11-02T23:30:49.276Z,12.07
2018-11-02T23:32:52.435Z,13.43
2018-11-02T23:34:55.717Z,14.30
2018-11-02T23:36:58.805Z,15.20
2018-11-02T23:39:03.632Z,12.80
2018-11-02T23:41:07.068Z,15.27
2018-11-02T23:43:10.232Z,13.20
2018-11-02T23:45:13.348Z,16.73
2018-11-02T23:47:16.712Z,15.23
2018-11-02T23:49:19.706Z,14.90
2018-11-02T23:51:22.785Z,14.70
2018-11-02T23:53:25.855Z,14.07
2018-11-02T23:55:28.917Z,13.47
2018-11-02T23:57:34.429Z,15.77
2018-11-02T23:59:37.767Z,14.67
